| time (UTC) | temp C | wind direction | speed KPH | gust KPH | rain 1hr cm | rain 24hr cm | rain mn cm | humidity % | barometer mb |
| 20260510024027 | 23 | 106 | 6.4 | 9.7 | 0.00 | 0.03 | 0.03 | 73 | 1011.3 |
| 20260510023522 | 24 | 176 | 1.6 | 4.8 | 0.00 | 0.03 | 0.03 | 72 | 1011.3 |
| 20260510023020 | 24 | 89 | 3.2 | 3.2 | 0.00 | 0.03 | 0.03 | 72 | 1011.3 |
| 20260510022520 | 23 | 88 | 3.2 | 3.2 | 0.00 | 0.03 | 0.03 | 73 | 1011.3 |
| 20260510022014 | 23 | 86 | 4.8 | 8.0 | 0.00 | 0.03 | 0.03 | 72 | 1011.3 |
| 20260510021511 | 23 | 93 | 1.6 | 1.6 | 0.00 | 0.03 | 0.03 | 73 | 1011.0 |
| 20260510021008 | 23 | 184 | 8.0 | 12.9 | 0.00 | 0.03 | 0.03 | 74 | 1011.0 |
| 20260510020502 | 23 | 97 | 3.2 | 3.2 | 0.00 | 0.03 | 0.03 | 75 | 1011.3 |
| 20260510015958 | 23 | 47 | 4.8 | 9.7 | 0.00 | 0.03 | 0.03 | 75 | 1011.3 |
| 20260510015454 | 25 | 88 | 8.0 | 11.3 | 0.00 | 0.03 | 0.03 | 76 | 1011.0 |
| 20260510014950 | 25 | 97 | 1.6 | 3.2 | 0.00 | 0.03 | 0.03 | 78 | 1010.7 |
| 20260510014448 | 26 | 53 | 12.9 | 14.5 | 0.00 | 0.03 | 0.03 | 75 | 1010.3 |
| 20260510013944 | 27 | 114 | 3.2 | 8.0 | 0.00 | 0.03 | 0.03 | 81 | 1010.3 |
| 20260510013438 | 28 | 142 | 1.6 | 1.6 | 0.00 | 0.03 | 0.03 | 77 | 1010.0 |
| 20260510012935 | 28 | 140 | 1.6 | 1.6 | 0.00 | 0.03 | 0.03 | 66 | 1009.7 |
| 20260510012429 | 28 | 154 | 3.2 | 3.2 | 0.00 | 0.03 | 0.03 | 65 | 1009.3 |
| 20260510011925 | 28 | 156 | 4.8 | 8.0 | 0.00 | 0.03 | 0.03 | 67 | 1008.6 |
| 20260510011420 | 28 | 245 | 1.6 | 1.6 | 0.00 | 0.03 | 0.03 | 68 | 1008.6 |
| 20260510010916 | 28 | 183 | 6.4 | 9.7 | 0.00 | 0.03 | 0.03 | 67 | 1008.6 |
| 20260510010414 | 28 | 213 | 3.2 | 3.2 | 0.00 | 0.03 | 0.03 | 67 | 1008.6 |
| 20260510005910 | 29 | 94 | 6.4 | 9.7 | 0.00 | 0.03 | 0.03 | 67 | 1008.6 |
| 20260510005406 | 29 | 277 | 3.2 | 4.8 | 0.00 | 0.03 | 0.03 | 68 | 1008.6 |
| 20260510004904 | 29 | 130 | 3.2 | 4.8 | 0.00 | 0.03 | 0.03 | 67 | 1008.6 |
| 20260510004401 | 29 | 194 | 1.6 | 1.6 | 0.00 | 0.03 | 0.03 | 67 | 1008.3 |
| 20260510003859 | 30 | 147 | 3.2 | 4.8 | 0.00 | 0.03 | 0.03 | 67 | 1008.3 |
| 20260510003355 | 30 | 118 | 1.6 | 3.2 | 0.00 | 0.03 | 0.03 | 68 | 1008.0 |
| 20260510002854 | 30 | 130 | 4.8 | 4.8 | 0.00 | 0.03 | 0.03 | 68 | 1008.3 |
| 20260510002352 | 30 | 149 | 4.8 | 4.8 | 0.00 | 0.03 | 0.03 | 67 | 1008.0 |
| 20260510001848 | 30 | 342 | 1.6 | 3.2 | 0.00 | 0.03 | 0.03 | 65 | 1008.0 |
| 20260510001346 | 30 | 150 | 1.6 | 1.6 | 0.00 | 0.03 | 0.03 | 63 | 1008.0 |
| 20260510000842 | 30 | 198 | 0.0 | 1.6 | 0.00 | 0.03 | 0.03 | 62 | 1008.0 |
| 20260510000341 | 30 | 164 | 1.6 | 1.6 | 0.00 | 0.03 | 0.03 | 61 | 1008.0 |
| 20260509235836 | 31 | 343 | 0.0 | 0.0 | 0.00 | 0.03 | 0.03 | 59 | 1008.0 |
| 20260509235333 | 31 | 98 | 1.6 | 3.2 | 0.00 | 0.03 | 0.03 | 58 | 1008.0 |
| 20260509234829 | 31 | 310 | 1.6 | 3.2 | 0.00 | 0.03 | 0.03 | 58 | 1008.0 |
| 20260509234326 | 31 | 225 | 0.0 | 1.6 | 0.00 | 0.03 | 0.03 | 56 | 1007.6 |
| 20260509233824 | 31 | 208 | 1.6 | 3.2 | 0.00 | 0.03 | 0.03 | 57 | 1008.0 |
| 20260509233321 | 31 | 83 | 1.6 | 1.6 | 0.00 | 0.03 | 0.03 | 57 | 1008.0 |
| 20260509232817 | 31 | 161 | 3.2 | 3.2 | 0.00 | 0.03 | 0.03 | 56 | 1008.0 |
| 20260509232315 | 32 | 233 | 1.6 | 3.2 | 0.00 | 0.03 | 0.03 | 55 | 1008.0 |
| 20260509231811 | 32 | 73 | 1.6 | 1.6 | 0.00 | 0.03 | 0.03 | 56 | 1007.6 |
| 20260509231308 | 32 | 172 | 1.6 | 3.2 | 0.00 | 0.03 | 0.03 | 54 | 1008.0 |
| 20260509230806 | 32 | 233 | 3.2 | 3.2 | 0.00 | 0.03 | 0.03 | 54 | 1008.0 |
| 20260509230302 | 32 | 233 | 1.6 | 1.6 | 0.00 | 0.03 | 0.03 | 53 | 1008.0 |
| 20260509225757 | 32 | 30 | 1.6 | 1.6 | 0.00 | 0.03 | 0.03 | 55 | 1008.0 |
| 20260509225254 | 32 | 355 | 1.6 | 1.6 | 0.00 | 0.03 | 0.03 | 54 | 1007.6 |
| 20260509224750 | 32 | 302 | 1.6 | 1.6 | 0.00 | 0.03 | 0.03 | 54 | 1008.0 |
| 20260509224247 | 32 | 161 | 4.8 | 8.0 | 0.00 | 0.03 | 0.03 | 54 | 1008.0 |
| 20260509223744 | 31 | 34 | 1.6 | 1.6 | 0.00 | 0.03 | 0.03 | 60 | 1008.0 |
| 20260509223241 | 32 | 57 | 3.2 | 3.2 | 0.00 | 0.03 | 0.03 | 58 | 1007.6 |
| 20260509222737 | 32 | 196 | 3.2 | 4.8 | 0.00 | 0.03 | 0.03 | 58 | 1007.6 |
| 20260509222233 | 32 | 19 | 1.6 | 1.6 | 0.00 | 0.03 | 0.03 | 59 | 1008.0 |
| 20260509221728 | 32 | 89 | 3.2 | 3.2 | 0.00 | 0.03 | 0.03 | 59 | 1007.3 |
| 20260509221225 | 31 | 46 | 4.8 | 4.8 | 0.00 | 0.03 | 0.03 | 60 | 1007.6 |
| 20260509220721 | 31 | 11 | 1.6 | 1.6 | 0.00 | 0.03 | 0.03 | 61 | 1007.6 |
| 20260509220218 | 31 | 77 | 4.8 | 8.0 | 0.00 | 0.03 | 0.03 | 61 | 1007.6 |
| 20260509215713 | 31 | 1 | 1.6 | 3.2 | 0.00 | 0.03 | 0.03 | 59 | 1007.3 |
| 20260509215210 | 31 | 11 | 1.6 | 1.6 | 0.00 | 0.03 | 0.03 | 58 | 1007.3 |
| 20260509214707 | 31 | 359 | 4.8 | 4.8 | 0.00 | 0.03 | 0.03 | 58 | 1007.3 |
| 20260509214204 | 31 | 279 | 1.6 | 1.6 | 0.00 | 0.03 | 0.03 | 58 | 1007.6 |
| 20260509213701 | 31 | 288 | 4.8 | 4.8 | 0.00 | 0.03 | 0.03 | 58 | 1007.6 |
| 20260509213156 | 31 | 324 | 4.8 | 4.8 | 0.00 | 0.03 | 0.03 | 60 | 1007.6 |
| 20260509212654 | 31 | 335 | 8.0 | 9.7 | 0.00 | 0.03 | 0.03 | 60 | 1007.3 |
| 20260509212151 | 31 | 46 | 3.2 | 3.2 | 0.00 | 0.03 | 0.03 | 60 | 1007.6 |
| 20260509211647 | 31 | 311 | 4.8 | 4.8 | 0.00 | 0.03 | 0.03 | 59 | 1007.3 |
| 20260509211143 | 31 | 342 | 4.8 | 4.8 | 0.00 | 0.03 | 0.03 | 59 | 1008.0 |
| 20260509210640 | 31 | 340 | 4.8 | 4.8 | 0.00 | 0.03 | 0.03 | 59 | 1007.6 |
| 20260509210137 | 31 | 291 | 3.2 | 3.2 | 0.00 | 0.03 | 0.03 | 63 | 1007.6 |
| 20260509205632 | 31 | 324 | 3.2 | 4.8 | 0.00 | 0.03 | 0.03 | 63 | 1007.6 |
| 20260509205127 | 31 | 300 | 4.8 | 4.8 | 0.00 | 0.03 | 0.03 | 61 | 1008.0 |
| 20260509204623 | 31 | 358 | 6.4 | 9.7 | 0.00 | 0.03 | 0.03 | 61 | 1008.0 |
| 20260509204120 | 31 | 324 | 6.4 | 8.0 | 0.00 | 0.03 | 0.03 | 61 | 1007.6 |
| 20260509203616 | 31 | 341 | 4.8 | 4.8 | 0.00 | 0.03 | 0.03 | 61 | 1008.0 |
| 20260509203114 | 31 | 19 | 4.8 | 8.0 | 0.00 | 0.03 | 0.03 | 60 | 1008.0 |
| 20260509202608 | 31 | 307 | 8.0 | 9.7 | 0.00 | 0.03 | 0.03 | 62 | 1008.0 |
| 20260509202104 | 31 | 308 | 1.6 | 1.6 | 0.00 | 0.03 | 0.03 | 61 | 1008.3 |
| 20260509201604 | 30 | 344 | 0.0 | 1.6 | 0.00 | 0.03 | 0.03 | 62 | 1008.3 |
| 20260509201103 | 31 | 297 | 4.8 | 8.0 | 0.00 | 0.03 | 0.03 | 61 | 1008.0 |
| 20260509200602 | 30 | 302 | 3.2 | 4.8 | 0.00 | 0.03 | 0.03 | 63 | 1008.3 |
| 20260509200053 | 30 | 282 | 1.6 | 1.6 | 0.00 | 0.03 | 0.03 | 63 | 1008.3 |
| 20260509195549 | 30 | 4 | 1.6 | 3.2 | 0.00 | 0.03 | 0.03 | 64 | 1008.3 |
| 20260509195044 | 30 | 341 | 4.8 | 4.8 | 0.00 | 0.03 | 0.03 | 63 | 1008.6 |
| 20260509194544 | 30 | 320 | 3.2 | 3.2 | 0.00 | 0.03 | 0.03 | 63 | 1009.0 |
| 20260509194042 | 30 | 286 | 4.8 | 4.8 | 0.00 | 0.03 | 0.03 | 62 | 1008.6 |
| 20260509193537 | 30 | 309 | 8.0 | 9.7 | 0.00 | 0.03 | 0.03 | 63 | 1009.0 |
| 20260509193033 | 30 | 305 | 4.8 | 8.0 | 0.00 | 0.03 | 0.03 | 62 | 1008.6 |
| 20260509192530 | 30 | 345 | 1.6 | 1.6 | 0.00 | 0.03 | 0.03 | 63 | 1009.0 |
| 20260509192025 | 30 | 312 | 6.4 | 8.0 | 0.00 | 0.03 | 0.03 | 64 | 1009.0 |
| 20260509191520 | 30 | 319 | 9.7 | 11.3 | 0.00 | 0.03 | 0.03 | 63 | 1009.0 |
| 20260509191016 | 30 | 296 | 6.4 | 8.0 | 0.00 | 0.03 | 0.03 | 61 | 1009.0 |
| 20260509190513 | 30 | 315 | 1.6 | 1.6 | 0.00 | 0.03 | 0.03 | 62 | 1009.0 |
| 20260509190011 | 31 | 306 | 8.0 | 9.7 | 0.00 | 0.03 | 0.03 | 60 | 1009.0 |
| 20260509185508 | 30 | 254 | 6.4 | 8.0 | 0.00 | 0.03 | 0.03 | 62 | 1009.0 |
| 20260509185004 | 30 | 267 | 4.8 | 4.8 | 0.00 | 0.03 | 0.03 | 63 | 1009.0 |
| 20260509184503 | 30 | 324 | 4.8 | 8.0 | 0.00 | 0.03 | 0.03 | 63 | 1009.3 |
| 20260509183958 | 30 | 271 | 1.6 | 1.6 | 0.00 | 0.03 | 0.03 | 66 | 1009.3 |
| 20260509183453 | 30 | 300 | 9.7 | 11.3 | 0.00 | 0.03 | 0.03 | 65 | 1009.3 |
| 20260509182950 | 30 | 300 | 0.0 | 0.0 | 0.00 | 0.03 | 0.03 | 65 | 1009.3 |
| 20260509182445 | 30 | 277 | 0.0 | 1.6 | 0.00 | 0.03 | 0.03 | 66 | 1009.7 |
| 20260509181943 | 30 | 11 | 1.6 | 3.2 | 0.00 | 0.03 | 0.03 | 65 | 1009.7 |
| 20260509181435 | 31 | 161 | 3.2 | 4.8 | 0.00 | 0.03 | 0.03 | 63 | 1009.7 |
| 20260509180933 | 30 | 243 | 1.6 | 1.6 | 0.00 | 0.03 | 0.03 | 64 | 1009.7 |
| 20260509180427 | 30 | 176 | 3.2 | 3.2 | 0.00 | 0.03 | 0.03 | 63 | 1010.0 |
| 20260509175925 | 30 | 282 | 1.6 | 1.6 | 0.00 | 0.03 | 0.03 | 65 | 1009.7 |
| 20260509175421 | 30 | 321 | 3.2 | 4.8 | 0.00 | 0.03 | 0.03 | 68 | 1009.7 |
| 20260509174912 | 30 | 302 | 4.8 | 4.8 | 0.00 | 0.03 | 0.03 | 67 | 1010.0 |
| 20260509174408 | 30 | 258 | 8.0 | 9.7 | 0.00 | 0.03 | 0.03 | 66 | 1010.0 |
| 20260509173904 | 30 | 309 | 0.0 | 0.0 | 0.00 | 0.03 | 0.03 | 71 | 1010.0 |
| 20260509173403 | 28 | 266 | 0.0 | 0.0 | 0.00 | 0.03 | 0.03 | 74 | 1010.0 |
| 20260509172901 | 28 | 262 | 4.8 | 8.0 | 0.00 | 0.03 | 0.03 | 72 | 1010.0 |
| 20260509172357 | 29 | 128 | 0.0 | 1.6 | 0.00 | 0.03 | 0.03 | 73 | 1010.3 |
| 20260509171853 | 28 | 290 | 3.2 | 4.8 | 0.00 | 0.03 | 0.03 | 73 | 1010.3 |
| 20260509171349 | 28 | 210 | 0.0 | 1.6 | 0.00 | 0.03 | 0.03 | 76 | 1010.3 |
| 20260509170846 | 28 | 209 | 3.2 | 3.2 | 0.00 | 0.03 | 0.03 | 74 | 1010.3 |
| 20260509170341 | 28 | 273 | 0.0 | 0.0 | 0.00 | 0.03 | 0.03 | 77 | 1010.0 |
| 20260509165836 | 28 | 184 | 3.2 | 3.2 | 0.00 | 0.03 | 0.03 | 77 | 1010.0 |
| 20260509165331 | 27 | 194 | 1.6 | 1.6 | 0.00 | 0.03 | 0.03 | 78 | 1010.0 |
| 20260509164827 | 27 | 279 | 0.0 | 1.6 | 0.00 | 0.03 | 0.03 | 78 | 1010.0 |
| 20260509164323 | 27 | 282 | 1.6 | 1.6 | 0.00 | 0.03 | 0.03 | 79 | 1010.0 |
| 20260509163819 | 27 | 253 | 0.0 | 0.0 | 0.00 | 0.03 | 0.03 | 80 | 1010.3 |
| 20260509163316 | 27 | 321 | 3.2 | 3.2 | 0.00 | 0.03 | 0.03 | 80 | 1010.3 |
| 20260509162815 | 27 | 306 | 0.0 | 1.6 | 0.00 | 0.03 | 0.03 | 80 | 1010.3 |
| 20260509162309 | 27 | 318 | 3.2 | 3.2 | 0.00 | 0.03 | 0.03 | 79 | 1010.3 |
| 20260509161805 | 28 | 44 | 1.6 | 3.2 | 0.00 | 0.03 | 0.03 | 76 | 1010.7 |
| 20260509161301 | 27 | 213 | 1.6 | 1.6 | 0.00 | 0.03 | 0.03 | 79 | 1010.3 |
| 20260509160756 | 27 | 279 | 1.6 | 1.6 | 0.00 | 0.03 | 0.03 | 81 | 1010.7 |
| 20260509160253 | 27 | 303 | 3.2 | 3.2 | 0.00 | 0.03 | 0.03 | 81 | 1010.3 |
| 20260509155748 | 27 | 292 | 1.6 | 1.6 | 0.00 | 0.03 | 0.03 | 81 | 1010.3 |
| 20260509155245 | 27 | 351 | 3.2 | 3.2 | 0.00 | 0.03 | 0.03 | 81 | 1010.3 |
| 20260509154741 | 26 | 318 | 0.0 | 1.6 | 0.00 | 0.03 | 0.03 | 83 | 1010.3 |
| 20260509154238 | 26 | 315 | 3.2 | 3.2 | 0.00 | 0.03 | 0.03 | 83 | 1010.7 |
| 20260509153736 | 26 | 323 | 1.6 | 1.6 | 0.00 | 0.03 | 0.03 | 84 | 1010.7 |
| 20260509153231 | 26 | 356 | 0.0 | 0.0 | 0.00 | 0.03 | 0.03 | 87 | 1010.3 |
| 20260509152728 | 26 | 264 | 3.2 | 3.2 | 0.00 | 0.03 | 0.03 | 89 | 1010.3 |
| 20260509152224 | 25 | 316 | 0.0 | 0.0 | 0.00 | 0.03 | 0.03 | 92 | 1010.7 |
| 20260509151722 | 25 | 25 | 1.6 | 3.2 | 0.00 | 0.03 | 0.03 | 92 | 1010.3 |
| 20260509151218 | 25 | 359 | 1.6 | 1.6 | 0.00 | 0.03 | 0.03 | 93 | 1010.7 |
| 20260509150716 | 25 | 330 | 3.2 | 4.8 | 0.00 | 0.03 | 0.03 | 94 | 1010.7 |
| 20260509150214 | 25 | 353 | 3.2 | 3.2 | 0.00 | 0.03 | 0.03 | 95 | 1010.7 |
| 20260509145710 | 24 | 339 | 1.6 | 1.6 | 0.00 | 0.03 | 0.03 | 95 | 1010.7 |
| 20260509145206 | 24 | 322 | 1.6 | 1.6 | 0.00 | 0.03 | 0.03 | 95 | 1010.3 |
| 20260509144702 | 24 | 309 | 1.6 | 1.6 | 0.00 | 0.03 | 0.03 | 96 | 1010.3 |
| 20260509144200 | 24 | 301 | 0.0 | 0.0 | 0.00 | 0.03 | 0.03 | 97 | 1010.0 |
| 20260509143657 | 23 | 299 | 1.6 | 1.6 | 0.00 | 0.03 | 0.03 | 97 | 1010.3 |
| 20260509143154 | 23 | 325 | 1.6 | 1.6 | 0.00 | 0.03 | 0.03 | 97 | 1010.0 |
| 20260509142649 | 23 | 248 | 0.0 | 0.0 | 0.00 | 0.03 | 0.03 | 97 | 1010.0 |
| 20260509142147 | 23 | 355 | 0.0 | 0.0 | 0.00 | 0.03 | 0.03 | 97 | 1010.0 |
| 20260509141642 | 23 | 359 | 0.0 | 0.0 | 0.00 | 0.03 | 0.03 | 97 | 1010.0 |
| 20260509141138 | 23 | 32 | 3.2 | 3.2 | 0.00 | 0.03 | 0.03 | 97 | 1010.0 |
| 20260509140636 | 23 | 4 | 1.6 | 1.6 | 0.00 | 0.03 | 0.03 | 97 | 1010.0 |
| 20260509140134 | 23 | 344 | 4.8 | 4.8 | 0.00 | 0.03 | 0.03 | 97 | 1010.0 |
| 20260509135630 | 23 | 331 | 1.6 | 3.2 | 0.00 | 0.03 | 0.03 | 98 | 1010.3 |
| 20260509135129 | 23 | 323 | 1.6 | 1.6 | 0.00 | 0.03 | 0.03 | 98 | 1010.0 |
| 20260509134625 | 23 | 169 | 1.6 | 1.6 | 0.00 | 0.03 | 0.03 | 98 | 1010.0 |
| 20260509134123 | 23 | 352 | 0.0 | 0.0 | 0.00 | 0.03 | 0.03 | 98 | 1010.0 |
| 20260509133620 | 23 | 303 | 0.0 | 0.0 | 0.00 | 0.03 | 0.03 | 98 | 1010.0 |
| 20260509133117 | 23 | 298 | 1.6 | 1.6 | 0.00 | 0.03 | 0.03 | 98 | 1010.3 |
| 20260509132615 | 23 | 332 | 0.0 | 0.0 | 0.00 | 0.03 | 0.03 | 98 | 1010.0 |
| 20260509132113 | 23 | 306 | 1.6 | 1.6 | 0.00 | 0.03 | 0.03 | 98 | 1010.7 |
| 20260509131609 | 23 | 308 | 1.6 | 1.6 | 0.00 | 0.03 | 0.03 | 98 | 1010.7 |
| 20260509131106 | 23 | 306 | 0.0 | 0.0 | 0.00 | 0.03 | 0.03 | 98 | 1010.3 |
| 20260509130601 | 23 | 294 | 1.6 | 1.6 | 0.00 | 0.03 | 0.03 | 98 | 1010.3 |
| 20260509130058 | 23 | 329 | 1.6 | 1.6 | 0.00 | 0.03 | 0.03 | 98 | 1010.7 |
| 20260509125555 | 23 | 304 | 3.2 | 3.2 | 0.00 | 0.03 | 0.03 | 98 | 1010.3 |
| 20260509125052 | 23 | 298 | 1.6 | 3.2 | 0.00 | 0.03 | 0.03 | 98 | 1010.7 |
| 20260509124548 | 23 | 300 | 1.6 | 1.6 | 0.00 | 0.03 | 0.03 | 98 | 1010.7 |
| 20260509124045 | 23 | 305 | 1.6 | 1.6 | 0.00 | 0.03 | 0.03 | 98 | 1010.7 |
| 20260509123543 | 23 | 335 | 1.6 | 1.6 | 0.00 | 0.03 | 0.03 | 98 | 1010.3 |
| 20260509123039 | 23 | 326 | 0.0 | 1.6 | 0.00 | 0.03 | 0.03 | 98 | 1010.0 |
| 20260509122536 | 22 | 301 | 0.0 | 0.0 | 0.00 | 0.03 | 0.03 | 98 | 1010.0 |
| 20260509122033 | 22 | 296 | 0.0 | 0.0 | 0.00 | 0.03 | 0.03 | 98 | 1010.0 |
| 20260509121529 | 22 | 283 | 0.0 | 0.0 | 0.00 | 0.03 | 0.03 | 98 | 1010.0 |
| 20260509121027 | 22 | 167 | 0.0 | 0.0 | 0.00 | 0.03 | 0.03 | 98 | 1009.7 |
| 20260509120525 | 22 | 185 | 0.0 | 1.6 | 0.00 | 0.03 | 0.03 | 98 | 1009.7 |
| 20260509120023 | 22 | 159 | 1.6 | 1.6 | 0.00 | 0.03 | 0.03 | 98 | 1009.7 |
| 20260509115520 | 22 | 180 | 1.6 | 1.6 | 0.00 | 0.03 | 0.03 | 98 | 1009.3 |
| 20260509115018 | 22 | 230 | 0.0 | 1.6 | 0.00 | 0.03 | 0.03 | 98 | 1009.7 |
| 20260509114515 | 22 | 223 | 0.0 | 0.0 | 0.00 | 0.03 | 0.03 | 98 | 1009.7 |
| 20260509114014 | 22 | 213 | 0.0 | 0.0 | 0.00 | 0.03 | 0.03 | 98 | 1010.0 |
| 20260509113512 | 22 | 202 | 0.0 | 1.6 | 0.00 | 0.03 | 0.03 | 98 | 1009.7 |
| 20260509113010 | 22 | 275 | 0.0 | 0.0 | 0.00 | 0.03 | 0.03 | 98 | 1010.0 |
| 20260509112506 | 22 | 318 | 0.0 | 0.0 | 0.00 | 0.03 | 0.03 | 98 | 1010.3 |
| 20260509112003 | 22 | 302 | 1.6 | 1.6 | 0.00 | 0.03 | 0.03 | 98 | 1010.3 |
| 20260509111500 | 22 | 264 | 0.0 | 0.0 | 0.00 | 0.03 | 0.03 | 98 | 1010.3 |
| 20260509110957 | 22 | 288 | 0.0 | 0.0 | 0.00 | 0.03 | 0.03 | 98 | 1010.3 |
| 20260509110453 | 22 | 309 | 1.6 | 1.6 | 0.00 | 0.03 | 0.03 | 98 | 1010.3 |
| 20260509105951 | 22 | 323 | 1.6 | 1.6 | 0.00 | 0.03 | 0.03 | 98 | 1010.3 |
| 20260509105449 | 22 | 358 | 3.2 | 3.2 | 0.00 | 0.03 | 0.03 | 98 | 1010.0 |
| 20260509104946 | 22 | 0 | 1.6 | 1.6 | 0.00 | 0.03 | 0.03 | 98 | 1010.0 |
| 20260509104443 | 22 | 333 | 1.6 | 1.6 | 0.00 | 0.03 | 0.03 | 98 | 1010.0 |
| 20260509103940 | 22 | 326 | 1.6 | 1.6 | 0.00 | 0.03 | 0.03 | 98 | 1010.0 |
| 20260509103438 | 22 | 305 | 0.0 | 0.0 | 0.00 | 0.03 | 0.03 | 98 | 1010.0 |
| 20260509102936 | 22 | 305 | 0.0 | 0.0 | 0.00 | 0.03 | 0.03 | 97 | 1010.0 |
| 20260509102433 | 22 | 320 | 0.0 | 0.0 | 0.00 | 0.03 | 0.03 | 97 | 1009.7 |
| 20260509101929 | 22 | 318 | 0.0 | 0.0 | 0.00 | 0.03 | 0.03 | 98 | 1009.7 |
| 20260509101425 | 22 | 287 | 0.0 | 0.0 | 0.00 | 0.03 | 0.03 | 97 | 1009.3 |
| 20260509100923 | 22 | 255 | 0.0 | 0.0 | 0.00 | 0.03 | 0.03 | 97 | 1009.3 |
| 20260509100420 | 22 | 255 | 0.0 | 0.0 | 0.00 | 0.03 | 0.03 | 97 | 1009.0 |
| 20260509095916 | 22 | 288 | 0.0 | 0.0 | 0.00 | 0.03 | 0.03 | 97 | 1009.0 |
| 20260509095414 | 22 | 290 | 0.0 | 0.0 | 0.00 | 0.03 | 0.03 | 97 | 1009.0 |
| 20260509094911 | 22 | 291 | 0.0 | 0.0 | 0.00 | 0.03 | 0.03 | 97 | 1009.0 |
| 20260509094407 | 22 | 322 | 1.6 | 1.6 | 0.00 | 0.03 | 0.03 | 97 | 1009.0 |
| 20260509093905 | 22 | 323 | 0.0 | 0.0 | 0.00 | 0.03 | 0.03 | 97 | 1009.3 |
| 20260509093402 | 22 | 323 | 0.0 | 0.0 | 0.00 | 0.03 | 0.03 | 97 | 1009.3 |
| 20260509092900 | 22 | 308 | 0.0 | 0.0 | 0.00 | 0.03 | 0.03 | 97 | 1009.7 |
| 20260509092357 | 22 | 314 | 0.0 | 1.6 | 0.00 | 0.03 | 0.03 | 97 | 1010.0 |
| 20260509091856 | 22 | 332 | 0.0 | 0.0 | 0.00 | 0.03 | 0.03 | 97 | 1009.7 |
| 20260509091352 | 22 | 314 | 1.6 | 1.6 | 0.00 | 0.03 | 0.03 | 97 | 1009.7 |
| 20260509090850 | 22 | 325 | 1.6 | 1.6 | 0.00 | 0.03 | 0.03 | 97 | 1009.7 |
| 20260509090347 | 22 | 332 | 0.0 | 1.6 | 0.00 | 0.03 | 0.03 | 97 | 1009.3 |
| 20260509085844 | 22 | 332 | 0.0 | 0.0 | 0.00 | 0.03 | 0.03 | 97 | 1009.3 |
| 20260509085341 | 22 | 332 | 0.0 | 0.0 | 0.00 | 0.03 | 0.03 | 97 | 1009.0 |
| 20260509084838 | 22 | 332 | 0.0 | 0.0 | 0.00 | 0.03 | 0.03 | 97 | 1009.3 |
| 20260509084335 | 22 | 331 | 0.0 | 0.0 | 0.00 | 0.03 | 0.03 | 97 | 1009.3 |
| 20260509083833 | 22 | 343 | 0.0 | 0.0 | 0.00 | 0.03 | 0.03 | 97 | 1009.7 |
| 20260509083329 | 22 | 345 | 0.0 | 0.0 | 0.00 | 0.03 | 0.03 | 97 | 1009.3 |
| 20260509082826 | 22 | 344 | 0.0 | 0.0 | 0.00 | 0.03 | 0.03 | 97 | 1009.7 |
| 20260509082322 | 22 | 345 | 0.0 | 0.0 | 0.00 | 0.03 | 0.03 | 97 | 1009.7 |
| 20260509081820 | 22 | 345 | 0.0 | 0.0 | 0.00 | 0.03 | 0.03 | 97 | 1009.7 |
| 20260509081317 | 22 | 345 | 0.0 | 0.0 | 0.00 | 0.03 | 0.03 | 97 | 1009.3 |
| 20260509080815 | 22 | 348 | 0.0 | 1.6 | 0.00 | 0.03 | 0.03 | 97 | 1009.3 |
| 20260509080312 | 22 | 342 | 0.0 | 0.0 | 0.00 | 0.03 | 0.03 | 97 | 1009.7 |
| 20260509075810 | 22 | 342 | 0.0 | 0.0 | 0.00 | 0.03 | 0.03 | 97 | 1009.3 |
| 20260509075307 | 22 | 338 | 0.0 | 0.0 | 0.00 | 0.03 | 0.03 | 97 | 1009.7 |
| 20260509074804 | 22 | 321 | 0.0 | 0.0 | 0.00 | 0.03 | 0.03 | 97 | 1009.3 |
| 20260509074302 | 22 | 321 | 0.0 | 0.0 | 0.00 | 0.03 | 0.03 | 97 | 1009.7 |
| 20260509073758 | 22 | 321 | 0.0 | 0.0 | 0.00 | 0.03 | 0.03 | 97 | 1009.7 |
| 20260509073254 | 22 | 321 | 0.0 | 0.0 | 0.00 | 0.03 | 0.03 | 97 | 1010.0 |
| 20260509072751 | 22 | 321 | 0.0 | 0.0 | 0.00 | 0.03 | 0.03 | 97 | 1010.0 |
| 20260509072248 | 22 | 321 | 0.0 | 0.0 | 0.00 | 0.03 | 0.03 | 97 | 1010.0 |
| 20260509071744 | 22 | 321 | 0.0 | 0.0 | 0.00 | 0.03 | 0.03 | 96 | 1010.0 |
| 20260509071242 | 22 | 321 | 1.6 | 1.6 | 0.00 | 0.03 | 0.03 | 96 | 1010.0 |
| 20260509070738 | 22 | 326 | 1.6 | 1.6 | 0.00 | 0.03 | 0.03 | 96 | 1010.0 |
| 20260509070235 | 22 | 334 | 0.0 | 0.0 | 0.00 | 0.03 | 0.03 | 96 | 1009.7 |
| 20260509065731 | 22 | 343 | 0.0 | 0.0 | 0.03 | 0.03 | 0.03 | 96 | 1009.7 |
| 20260509065228 | 22 | 335 | 0.0 | 0.0 | 0.00 | 0.00 | 0.00 | 96 | 1010.0 |
| 20260509064724 | 22 | 318 | 0.0 | 0.0 | 0.00 | 0.00 | 0.00 | 96 | 1010.0 |
| 20260509064222 | 22 | 318 | 0.0 | 0.0 | 0.00 | 0.00 | 0.00 | 96 | 1010.0 |
| 20260509063719 | 22 | 319 | 1.6 | 1.6 | 0.00 | 0.00 | 0.00 | 96 | 1010.0 |
| 20260509063215 | 22 | 347 | 0.0 | 0.0 | 0.00 | 0.00 | 0.00 | 96 | 1010.0 |
| 20260509062713 | 22 | 355 | 0.0 | 0.0 | 0.00 | 0.00 | 0.00 | 96 | 1010.0 |
| 20260509062210 | 22 | 2 | 0.0 | 0.0 | 0.00 | 0.00 | 0.00 | 96 | 1010.0 |
| 20260509061707 | 22 | 356 | 0.0 | 0.0 | 0.00 | 0.00 | 0.00 | 96 | 1010.0 |
| 20260509061204 | 22 | 355 | 0.0 | 0.0 | 0.00 | 0.00 | 0.00 | 96 | 1010.0 |
| 20260509060701 | 22 | 21 | 0.0 | 0.0 | 0.00 | 0.00 | 0.00 | 96 | 1010.3 |
| 20260509060158 | 22 | 62 | 0.0 | 0.0 | 0.00 | 0.00 | 0.00 | 96 | 1010.0 |
| 20260509055654 | 22 | 25 | 1.6 | 1.6 | 0.00 | 0.00 | 0.00 | 96 | 1010.0 |
| 20260509055149 | 22 | 15 | 0.0 | 0.0 | 0.00 | 0.00 | 0.00 | 96 | 1010.0 |
| 20260509054646 | 22 | 181 | 0.0 | 1.6 | 0.00 | 0.00 | 0.00 | 96 | 1010.3 |
| 20260509054144 | 22 | 36 | 1.6 | 1.6 | 0.00 | 0.00 | 0.00 | 96 | 1010.0 |
| 20260509053642 | 22 | 165 | 0.0 | 0.0 | 0.00 | 0.00 | 0.00 | 96 | 1010.3 |
| 20260509053138 | 22 | 187 | 0.0 | 0.0 | 0.00 | 0.00 | 0.00 | 96 | 1010.3 |
| 20260509052636 | 22 | 177 | 0.0 | 0.0 | 0.00 | 0.00 | 0.00 | 96 | 1010.3 |
| 20260509052134 | 22 | 198 | 0.0 | 1.6 | 0.00 | 0.00 | 0.00 | 96 | 1010.0 |
| 20260509051632 | 22 | 134 | 1.6 | 1.6 | 0.00 | 0.00 | 0.00 | 96 | 1010.3 |
| 20260509051128 | 22 | 157 | 1.6 | 1.6 | 0.00 | 0.00 | 0.00 | 96 | 1010.0 |
| 20260509050626 | 22 | 149 | 4.8 | 4.8 | 0.00 | 0.00 | 0.00 | 96 | 1010.3 |
| 20260509050122 | 22 | 154 | 3.2 | 3.2 | 0.00 | 0.00 | 0.00 | 96 | 1010.0 |
| 20260509045620 | 22 | 274 | 0.0 | 1.6 | 0.00 | 0.30 | 0.30 | 96 | 1010.3 |
| 20260509045116 | 22 | 186 | 1.6 | 1.6 | 0.00 | 0.30 | 0.30 | 96 | 1010.3 |
| 20260509044613 | 22 | 217 | 1.6 | 1.6 | 0.00 | 0.30 | 0.30 | 96 | 1010.3 |
| 20260509044111 | 22 | 142 | 1.6 | 1.6 | 0.00 | 0.30 | 0.30 | 96 | 1010.7 |
| 20260509043607 | 22 | 187 | 1.6 | 1.6 | 0.00 | 0.30 | 0.30 | 96 | 1010.3 |
| 20260509043103 | 22 | 62 | 0.0 | 0.0 | 0.00 | 0.30 | 0.30 | 96 | 1010.3 |
| 20260509042559 | 22 | 121 | 0.0 | 0.0 | 0.00 | 0.30 | 0.30 | 96 | 1010.3 |
| 20260509042055 | 22 | 148 | 1.6 | 1.6 | 0.00 | 0.30 | 0.30 | 96 | 1010.7 |
| 20260509041552 | 22 | 117 | 0.0 | 0.0 | 0.00 | 0.30 | 0.30 | 96 | 1010.3 |
| 20260509041050 | 22 | 102 | 1.6 | 1.6 | 0.00 | 0.30 | 0.30 | 96 | 1010.3 |
| 20260509040548 | 22 | 153 | 0.0 | 1.6 | 0.00 | 0.30 | 0.30 | 96 | 1010.0 |
| 20260509040044 | 22 | 174 | 1.6 | 1.6 | 0.00 | 0.30 | 0.30 | 96 | 1010.0 |
| 20260509035542 | 22 | 160 | 0.0 | 1.6 | 0.00 | 0.30 | 0.30 | 96 | 1010.0 |
| 20260509035038 | 22 | 184 | 0.0 | 1.6 | 0.00 | 0.30 | 0.30 | 96 | 1010.0 |
| 20260509034537 | 22 | 353 | 0.0 | 0.0 | 0.00 | 0.30 | 0.30 | 96 | 1010.0 |
| 20260509034033 | 22 | 150 | 1.6 | 1.6 | 0.00 | 0.30 | 0.30 | 96 | 1010.0 |
| 20260509033530 | 22 | 166 | 0.0 | 0.0 | 0.00 | 0.30 | 0.30 | 96 | 1010.0 |
| 20260509033027 | 22 | 107 | 3.2 | 3.2 | 0.00 | 0.30 | 0.30 | 96 | 1010.0 |
| 20260509032524 | 22 | 154 | 0.0 | 1.6 | 0.00 | 0.30 | 0.30 | 96 | 1010.0 |
| 20260509032021 | 22 | 95 | 1.6 | 1.6 | 0.00 | 0.30 | 0.30 | 96 | 1010.0 |
| 20260509031519 | 22 | 45 | 0.0 | 0.0 | 0.00 | 0.30 | 0.30 | 96 | 1010.0 |
| 20260509031016 | 22 | 165 | 0.0 | 1.6 | 0.00 | 0.30 | 0.30 | 96 | 1010.0 |
| 20260509030514 | 22 | 150 | 1.6 | 3.2 | 0.00 | 0.30 | 0.30 | 96 | 1009.7 |
| 20260509030010 | 22 | 29 | 1.6 | 1.6 | 0.00 | 0.30 | 0.30 | 96 | 1009.7 |
| 20260509025507 | 22 | 109 | 1.6 | 3.2 | 0.00 | 0.30 | 0.30 | 96 | 1010.0 |
| 20260509025002 | 22 | 80 | 1.6 | 3.2 | 0.00 | 0.30 | 0.30 | 96 | 1010.0 |
| 20260509024458 | 22 | 66 | 1.6 | 1.6 | 0.00 | 0.30 | 0.30 | 96 | 1010.0 |